»·PEaware :: UAL222 KLAX-KSFO

UAL222 :: KLAX-KSFO

FLIGHT INFORMATION

Flight Status: Arrived
Operator:
United Airlines
More flights by this operator :: More flights under this callsign
Pilot: Jose A. (18565)
Aircraft: AIRBUS A320
(A320)
More flights by this aircraft type
Origin: KLAX Los Angeles Intl
United States
Destination: KSFO San Francisco Intl
United States
More flights between these airports :: More routes between these airports
Route: SUMMR1 STOKD SERFR SERFR3
File this flight plan on PilotEdge
Remarks:
Altitude:
(Current/Filed)
28,000ft
Speed:
(Current/Filed)
460kts
Departed: 13-Aug-19 02:51 PM
Arrived: 13-Aug-19 03:44 PM
Distance/Time
Traveled:
293nm/0:53
Distance/Time
To Go:
Arrived

Flight Plot

Page will automatically refresh every two minutes.

Flight plan parsing failed; only flown route is shown


Map Options




Map Legend


Flown Route
Filed Route
Departure Airport
Arrival Airport
Navaid (VOR, NDB)
Fix

Horizontal Profiles

Position Reports

Time Latitude Longitude Heading Altitude Ground
Speed
13-Aug-19 14:26 33.942229 -118.397892 0 141ft 0kts
13-Aug-19 14:27 33.942229 -118.397892 83 141ft 0kts
13-Aug-19 14:28 33.942229 -118.397892 83 141ft 0kts
13-Aug-19 14:29 33.942229 -118.397892 83 141ft 0kts
13-Aug-19 14:30 33.942229 -118.397892 83 141ft 0kts
13-Aug-19 14:31 33.942229 -118.397892 83 140ft 0kts
13-Aug-19 14:32 33.942229 -118.397892 83 140ft 0kts
13-Aug-19 14:33 33.942229 -118.397892 83 140ft 0kts
13-Aug-19 14:34 33.942229 -118.397892 83 140ft 0kts
13-Aug-19 14:35 33.942229 -118.397892 83 140ft 0kts
13-Aug-19 14:36 33.942229 -118.397892 83 140ft 0kts
13-Aug-19 14:37 33.942295 -118.398441 138 140ft 2kts
13-Aug-19 14:38 33.942585 -118.398566 173 140ft 0kts
13-Aug-19 14:40 33.942584 -118.398566 173 140ft 0kts
13-Aug-19 14:41 33.942583 -118.398566 173 140ft 0kts
13-Aug-19 14:42 33.942046 -118.398488 173 140ft 8kts
13-Aug-19 14:43 33.939760 -118.398280 168 140ft 10kts
13-Aug-19 14:44 33.939426 -118.393620 82 140ft 20kts
13-Aug-19 14:45 33.940084 -118.387190 83 140ft 16kts
13-Aug-19 14:46 33.940608 -118.382052 82 140ft 14kts
13-Aug-19 14:47 33.940681 -118.380854 103 140ft 0kts
13-Aug-19 14:48 33.940681 -118.380853 103 140ft 0kts
13-Aug-19 14:49 33.940681 -118.380852 103 140ft 0kts
13-Aug-19 14:50 33.940049 -118.380311 196 140ft 9kts
13-Aug-19 14:51 33.939443 -118.383889 263 141ft 63kts
13-Aug-19 14:52 33.935182 -118.424906 264 907ft 145kts
13-Aug-19 14:53 33.929691 -118.483069 264 2498ft 235kts
13-Aug-19 14:54 33.922715 -118.568372 263 6414ft 279kts
13-Aug-19 14:55 33.917674 -118.664110 268 10453ft 300kts
13-Aug-19 14:55 33.917293 -118.754117 268 10976ft 390kts
13-Aug-19 14:57 33.919376 -118.912581 271 12936ft 409kts
13-Aug-19 14:58 33.940790 -119.046748 298 15526ft 422kts
13-Aug-19 14:58 33.992717 -119.148714 305 17946ft 434kts
13-Aug-19 15:00 34.100662 -119.261497 324 20973ft 452kts
13-Aug-19 15:00 34.186967 -119.336618 324 22751ft 464kts
13-Aug-19 15:02 34.311252 -119.444441 324 25328ft 477kts
13-Aug-19 15:03 34.414963 -119.535452 318 27893ft 473kts
13-Aug-19 15:03 34.491813 -119.629103 314 28051ft 467kts
13-Aug-19 15:04 34.578068 -119.735993 314 28049ft 466kts
13-Aug-19 15:05 34.666785 -119.845864 314 28052ft 467kts
13-Aug-19 15:06 34.752782 -119.952445 314 28028ft 467kts
13-Aug-19 15:07 34.843512 -120.065097 314 28031ft 467kts
13-Aug-19 15:08 34.934473 -120.178312 314 28040ft 467kts
13-Aug-19 15:09 35.025429 -120.291848 314 28046ft 467kts
13-Aug-19 15:10 35.115300 -120.401368 317 28043ft 467kts
13-Aug-19 15:11 35.210815 -120.509089 317 28035ft 467kts
13-Aug-19 15:12 35.304377 -120.614468 317 28029ft 467kts
13-Aug-19 15:13 35.400022 -120.722284 317 28021ft 468kts
13-Aug-19 15:14 35.496475 -120.829131 322 28008ft 468kts
13-Aug-19 15:15 35.600237 -120.925780 323 28001ft 467kts
13-Aug-19 15:16 35.704054 -121.022290 323 27995ft 468kts
13-Aug-19 15:17 35.805206 -121.116536 323 27995ft 468kts
13-Aug-19 15:18 35.909074 -121.213554 323 28001ft 468kts
13-Aug-19 15:19 36.012652 -121.310606 323 28009ft 468kts
13-Aug-19 15:20 36.119074 -121.403243 328 27281ft 467kts
13-Aug-19 15:21 36.225652 -121.486591 328 26314ft 470kts
13-Aug-19 15:22 36.334640 -121.571907 327 23099ft 454kts
13-Aug-19 15:23 36.436437 -121.651876 327 21145ft 395kts
13-Aug-19 15:24 36.523092 -121.720658 327 20612ft 361kts
13-Aug-19 15:25 36.608610 -121.788491 326 18937ft 367kts
13-Aug-19 15:26 36.693693 -121.855960 326 17255ft 359kts
13-Aug-19 15:27 36.784126 -121.904705 345 15613ft 354kts
13-Aug-19 15:28 36.879203 -121.932326 346 13996ft 347kts
13-Aug-19 15:29 36.971385 -121.960574 342 12387ft 341kts
13-Aug-19 15:30 37.060430 -121.995298 342 10841ft 325kts
13-Aug-19 15:31 37.140846 -122.026714 342 10083ft 284kts
13-Aug-19 15:32 37.214741 -122.055686 342 8812ft 273kts
13-Aug-19 15:33 37.286305 -122.083793 343 7938ft 261kts
13-Aug-19 15:34 37.356171 -122.111317 343 6399ft 256kts
13-Aug-19 15:35 37.419199 -122.133891 345 4928ft 218kts
13-Aug-19 15:36 37.476015 -122.154729 328 3702ft 202kts
13-Aug-19 15:37 37.519901 -122.180444 4 3254ft 179kts
13-Aug-19 15:38 37.553467 -122.219725 299 2454ft 170kts
13-Aug-19 15:39 37.572650 -122.265242 299 1666ft 139kts
13-Aug-19 15:40 37.590173 -122.306936 299 948ft 127kts
13-Aug-19 15:41 37.606353 -122.345793 299 285ft 123kts
13-Aug-19 15:42 37.617909 -122.373047 297 27ft 41kts
13-Aug-19 15:43 37.619654 -122.379318 227 27ft 0kts
13-Aug-19 15:44 37.619441 -122.379621 228 27ft 12kts
13-Aug-19 15:45 37.621321 -122.385980 298 27ft 27kts
13-Aug-19 15:46 37.620950 -122.391938 207 27ft 17kts
13-Aug-19 15:47 37.618689 -122.389889 118 27ft 9kts
13-Aug-19 15:48 37.618336 -122.388263 130 27ft 4kts
13-Aug-19 15:49 37.618220 -122.388089 130 27ft 0kts
13-Aug-19 15:50 37.618219 -122.388089 130 27ft 0kts

Navigation Log

Ident Type
Flight plan parsing failed, navigation log unavailable